createdAt,value
2023-03-03T00:01:12.385Z,13.53
2023-03-03T00:03:39.083Z,12.13
2023-03-03T00:06:08.556Z,11.73
2023-03-03T00:08:34.876Z,9.30
2023-03-03T00:11:03.207Z,10.43
2023-03-03T00:13:30.644Z,7.33
2023-03-03T00:16:10.983Z,8.00
2023-03-03T00:18:40.626Z,8.13
2023-03-03T00:21:15.597Z,9.33
2023-03-03T00:23:43.346Z,11.47
2023-03-03T00:26:26.746Z,9.67
2023-03-03T00:28:54.580Z,8.43
2023-03-03T00:31:30.742Z,11.30
2023-03-03T00:33:59.611Z,7.57
2023-03-03T00:36:44.517Z,8.10
2023-03-03T00:39:13.560Z,8.27
2023-03-03T00:41:40.563Z,9.87
2023-03-03T00:44:30.003Z,9.50
2023-03-03T00:46:56.597Z,10.27
2023-03-03T00:49:25.905Z,9.97
2023-03-03T00:51:53.311Z,9.93
2023-03-03T00:54:19.805Z,7.13
2023-03-03T00:56:46.107Z,9.27
2023-03-03T00:59:12.443Z,9.27
2023-03-03T01:01:38.776Z,11.23
2023-03-03T01:04:05.137Z,11.27
2023-03-03T01:06:31.431Z,10.63
2023-03-03T01:08:57.765Z,10.53
2023-03-03T01:11:25.912Z,9.93
2023-03-03T01:13:52.754Z,8.47
2023-03-03T01:16:19.643Z,11.50
2023-03-03T01:18:46.043Z,9.77
2023-03-03T01:21:12.769Z,12.47
2023-03-03T01:23:39.520Z,12.60
2023-03-03T01:26:06.023Z,9.13
2023-03-03T01:28:32.808Z,7.93
2023-03-03T01:31:04.148Z,8.03
2023-03-03T01:33:31.711Z,10.77
2023-03-03T01:35:58.390Z,11.27
2023-03-03T01:38:24.898Z,8.00
2023-03-03T01:40:55.500Z,8.73
2023-03-03T01:43:22.251Z,10.03
2023-03-03T01:45:48.609Z,7.77
2023-03-03T01:48:32.911Z,8.80
2023-03-03T01:51:08.042Z,7.60
2023-03-03T01:53:45.342Z,9.43
2023-03-03T01:56:11.654Z,7.37
2023-03-03T01:58:43.213Z,8.27
2023-03-03T02:01:13.544Z,6.23
2023-03-03T02:03:40.111Z,7.13
2023-03-03T02:06:09.086Z,9.13
2023-03-03T02:08:43.042Z,8.67
2023-03-03T02:11:10.012Z,9.03
2023-03-03T02:13:36.336Z,8.33
2023-03-03T02:16:02.780Z,9.13
2023-03-03T02:18:29.634Z,10.63
2023-03-03T02:21:15.374Z,8.73
2023-03-03T02:23:53.643Z,7.80
2023-03-03T02:26:24.774Z,8.40
2023-03-03T02:28:52.517Z,6.30
2023-03-03T02:31:20.299Z,9.83
2023-03-03T02:33:48.391Z,6.07
2023-03-03T02:36:34.972Z,7.20
2023-03-03T02:39:01.260Z,9.60
2023-03-03T02:41:30.647Z,7.57
2023-03-03T02:44:01.906Z,8.07
2023-03-03T02:46:29.164Z,7.53
2023-03-03T02:48:55.477Z,7.70
2023-03-03T02:51:21.846Z,7.40
2023-03-03T02:53:48.165Z,8.23
2023-03-03T02:56:15.573Z,7.53
2023-03-03T02:58:42.125Z,4.60
2023-03-03T03:01:08.637Z,6.57
2023-03-03T03:03:35.028Z,4.37
2023-03-03T03:06:01.428Z,6.43
2023-03-03T03:08:27.858Z,6.53
2023-03-03T03:10:54.339Z,6.23
2023-03-03T03:13:20.730Z,6.40
2023-03-03T03:15:47.128Z,6.03
2023-03-03T03:18:13.866Z,7.20
2023-03-03T03:20:41.566Z,2.77
2023-03-03T03:23:08.269Z,3.17
2023-03-03T03:25:34.744Z,4.93
2023-03-03T03:28:01.995Z,4.73
2023-03-03T03:30:28.366Z,5.07
2023-03-03T03:32:54.745Z,3.53
2023-03-03T03:35:21.129Z,4.43
2023-03-03T03:37:47.484Z,5.43
2023-03-03T03:40:13.906Z,3.80
2023-03-03T03:42:41.315Z,2.77
2023-03-03T03:45:08.000Z,3.17
2023-03-03T03:47:34.295Z,5.27
2023-03-03T03:50:00.605Z,2.93
2023-03-03T03:52:26.941Z,5.90
2023-03-03T03:54:53.258Z,3.43
2023-03-03T03:57:19.669Z,3.17
2023-03-03T03:59:46.087Z,4.47
2023-03-03T04:02:12.461Z,2.87
2023-03-03T04:04:38.962Z,4.03
2023-03-03T04:07:05.252Z,6.60
2023-03-03T04:09:31.696Z,7.13
2023-03-03T04:11:58.004Z,3.23
2023-03-03T04:14:24.382Z,3.27
2023-03-03T04:16:50.720Z,5.50
2023-03-03T04:19:17.101Z,3.90
2023-03-03T04:21:43.518Z,4.40
2023-03-03T04:24:10.013Z,5.87
2023-03-03T04:26:36.387Z,6.27
2023-03-03T04:29:02.722Z,4.03
2023-03-03T04:31:29.051Z,3.80
2023-03-03T04:33:55.431Z,6.93
2023-03-03T04:36:22.067Z,4.43
2023-03-03T04:38:49.141Z,3.60
2023-03-03T04:41:16.053Z,2.37
2023-03-03T04:43:42.807Z,2.53
2023-03-03T04:46:09.138Z,5.97
2023-03-03T04:48:36.574Z,7.07
2023-03-03T04:51:02.919Z,4.27
2023-03-03T04:53:29.331Z,2.67
2023-03-03T04:55:55.662Z,3.57
2023-03-03T04:58:22.025Z,2.20
2023-03-03T05:00:53.082Z,6.73
2023-03-03T05:03:19.623Z,3.40
2023-03-03T05:05:47.178Z,2.60
2023-03-03T05:08:13.535Z,4.40
2023-03-03T05:10:40.072Z,3.87
2023-03-03T05:13:07.063Z,5.97
2023-03-03T05:15:33.386Z,6.23
2023-03-03T05:17:59.820Z,6.10
2023-03-03T05:20:26.136Z,2.73
2023-03-03T05:22:52.721Z,4.00
2023-03-03T05:25:19.298Z,6.47
2023-03-03T05:27:45.862Z,7.23
2023-03-03T05:30:12.503Z,5.97
2023-03-03T05:32:38.838Z,3.93
2023-03-03T05:35:05.601Z,3.87
2023-03-03T05:37:31.902Z,7.27
2023-03-03T05:39:58.248Z,4.70
2023-03-03T05:42:24.571Z,4.57
2023-03-03T05:44:50.879Z,5.20
2023-03-03T05:47:17.326Z,4.80
2023-03-03T05:49:43.646Z,9.93
2023-03-03T05:52:10.178Z,3.83
2023-03-03T05:54:36.499Z,6.80
2023-03-03T05:57:03.010Z,6.20
2023-03-03T05:59:29.328Z,6.10
2023-03-03T06:01:55.701Z,5.30
2023-03-03T06:04:22.025Z,7.87
2023-03-03T06:06:48.323Z,5.53
2023-03-03T06:09:14.703Z,6.50
2023-03-03T06:11:41.176Z,5.67
2023-03-03T06:14:07.534Z,7.10
2023-03-03T06:16:33.975Z,4.97
2023-03-03T06:19:01.464Z,5.47
2023-03-03T06:21:27.828Z,6.20
2023-03-03T06:23:54.407Z,5.33
2023-03-03T06:26:20.844Z,5.37
2023-03-03T06:28:48.061Z,9.30
2023-03-03T06:31:15.658Z,5.10
2023-03-03T06:33:42.656Z,6.73
2023-03-03T06:36:09.566Z,5.17
2023-03-03T06:38:35.944Z,13.63
2023-03-03T06:41:04.516Z,6.43
2023-03-03T06:43:30.871Z,8.10
2023-03-03T06:45:57.236Z,6.17
2023-03-03T06:48:23.569Z,5.20
2023-03-03T06:50:49.870Z,6.93
2023-03-03T06:53:16.972Z,6.40
2023-03-03T06:55:44.855Z,4.87
2023-03-03T06:58:18.650Z,5.87
2023-03-03T07:00:55.899Z,8.07
2023-03-03T07:03:28.290Z,3.90
2023-03-03T07:05:54.606Z,8.53
2023-03-03T07:08:22.622Z,6.27
2023-03-03T07:10:49.545Z,7.23
2023-03-03T07:13:18.885Z,7.43
2023-03-03T07:15:45.349Z,11.07
2023-03-03T07:18:33.592Z,7.17
2023-03-03T07:21:06.158Z,5.00
2023-03-03T07:23:42.404Z,6.60
2023-03-03T07:26:11.568Z,6.63
2023-03-03T07:28:40.530Z,6.17
2023-03-03T07:31:17.382Z,6.50
2023-03-03T07:33:46.770Z,13.47
2023-03-03T07:36:30.077Z,6.00
2023-03-03T07:39:05.532Z,6.37
2023-03-03T07:41:34.741Z,7.70
2023-03-03T07:44:16.139Z,8.40
2023-03-03T07:46:43.600Z,8.20
2023-03-03T07:49:33.373Z,8.33
2023-03-03T07:52:00.269Z,10.07
2023-03-03T07:54:29.632Z,7.93
2023-03-03T07:57:03.212Z,5.93
2023-03-03T07:59:30.126Z,9.67
2023-03-03T08:01:58.819Z,8.80
2023-03-03T08:04:29.222Z,6.27
2023-03-03T08:06:56.742Z,6.53
2023-03-03T08:09:32.109Z,7.97
2023-03-03T08:12:01.984Z,5.20
2023-03-03T08:14:30.393Z,10.03
2023-03-03T08:16:58.355Z,9.10
2023-03-03T08:19:26.281Z,9.30
2023-03-03T08:21:57.089Z,9.00
2023-03-03T08:24:23.466Z,10.57
2023-03-03T08:26:50.194Z,9.30
2023-03-03T08:29:17.650Z,14.10
2023-03-03T08:31:43.974Z,8.67
2023-03-03T08:34:10.421Z,11.60
2023-03-03T08:36:36.787Z,10.40
2023-03-03T08:39:04.934Z,13.43
2023-03-03T08:41:31.378Z,11.10
2023-03-03T08:43:57.822Z,13.20
2023-03-03T08:46:24.270Z,13.13
2023-03-03T08:48:51.390Z,10.07
2023-03-03T08:51:17.807Z,11.77
2023-03-03T08:53:44.132Z,14.90
2023-03-03T08:56:10.640Z,14.03
2023-03-03T08:58:37.024Z,12.57
2023-03-03T09:01:04.046Z,14.73
2023-03-03T09:03:30.564Z,16.23
2023-03-03T09:05:57.956Z,15.20
2023-03-03T09:08:24.338Z,14.77
2023-03-03T09:10:50.857Z,16.43
2023-03-03T09:13:19.403Z,19.57
2023-03-03T09:15:45.931Z,18.07
2023-03-03T09:18:12.394Z,19.93
2023-03-03T09:20:40.051Z,17.70
2023-03-03T09:23:44.790Z,12.30
2023-03-03T09:26:45.420Z,17.00
2023-03-03T09:29:14.369Z,14.97
2023-03-03T09:31:44.984Z,21.87
2023-03-03T09:34:22.507Z,17.87
2023-03-03T09:36:49.661Z,17.13
2023-03-03T09:39:20.058Z,19.20
2023-03-03T09:41:46.475Z,16.73
2023-03-03T09:44:25.043Z,15.60
2023-03-03T09:47:04.650Z,14.13
2023-03-03T09:49:49.182Z,17.60
2023-03-03T09:52:18.590Z,15.43
2023-03-03T09:54:48.217Z,16.63
2023-03-03T09:57:20.174Z,13.93
2023-03-03T09:59:49.374Z,13.37
2023-03-03T10:02:30.760Z,12.77
2023-03-03T10:05:00.031Z,13.57
2023-03-03T10:07:30.330Z,12.73
2023-03-03T10:10:11.808Z,14.20
2023-03-03T10:12:38.135Z,12.77
2023-03-03T10:15:17.168Z,11.73
2023-03-03T10:17:53.659Z,8.37
2023-03-03T10:20:49.215Z,11.43
2023-03-03T10:23:24.108Z,8.10
2023-03-03T10:25:53.642Z,7.50
2023-03-03T10:28:19.968Z,6.10
2023-03-03T10:31:10.705Z,8.33
2023-03-03T10:33:41.985Z,6.37
2023-03-03T10:36:14.516Z,8.27
2023-03-03T10:38:44.064Z,7.83
2023-03-03T10:41:35.634Z,3.87
2023-03-03T10:44:02.070Z,6.07
2023-03-03T10:46:35.643Z,7.00
2023-03-03T10:49:08.147Z,6.33
2023-03-03T10:52:01.074Z,2.90
2023-03-03T10:54:38.474Z,9.97
2023-03-03T10:57:11.227Z,3.23
2023-03-03T10:59:52.551Z,5.93
2023-03-03T11:02:34.199Z,4.17
2023-03-03T11:05:12.854Z,4.03
2023-03-03T11:07:42.327Z,1.83
2023-03-03T11:10:27.274Z,2.33
2023-03-03T11:13:13.926Z,0.80
2023-03-03T11:15:50.078Z,1.57
2023-03-03T11:18:25.965Z,0.90
2023-03-03T11:21:11.030Z,4.23
2023-03-03T11:23:50.047Z,3.37
2023-03-03T11:26:28.851Z,1.97
2023-03-03T11:29:01.178Z,1.07
2023-03-03T11:31:49.049Z,1.10
2023-03-03T11:34:42.942Z,2.20
2023-03-03T11:37:32.366Z,1.93
2023-03-03T11:40:03.170Z,4.17
2023-03-03T11:42:44.914Z,0.80
2023-03-03T11:45:17.604Z,3.67
2023-03-03T11:47:51.016Z,1.47
2023-03-03T11:50:17.519Z,3.10
2023-03-03T11:52:46.644Z,4.20
2023-03-03T11:55:13.012Z,2.50
2023-03-03T11:57:45.429Z,1.37
2023-03-03T12:00:20.491Z,2.83
2023-03-03T12:03:10.705Z,2.50
2023-03-03T12:05:47.711Z,1.23
2023-03-03T12:08:25.964Z,3.20
2023-03-03T12:11:15.323Z,2.57
2023-03-03T12:13:41.665Z,3.37
2023-03-03T12:16:12.892Z,1.70
2023-03-03T12:18:49.161Z,2.37
2023-03-03T12:21:15.584Z,1.67
2023-03-03T12:23:42.923Z,2.77
2023-03-03T12:26:18.506Z,2.70
2023-03-03T12:28:49.718Z,4.20
2023-03-03T12:31:30.584Z,0.70
2023-03-03T12:34:17.188Z,2.07
2023-03-03T12:37:00.915Z,2.27
2023-03-03T12:39:35.812Z,1.10
2023-03-03T12:42:16.792Z,1.20
2023-03-03T12:44:43.359Z,1.40
2023-03-03T12:47:23.230Z,0.83
2023-03-03T12:50:07.596Z,1.83
2023-03-03T12:52:34.531Z,4.80
2023-03-03T12:55:03.729Z,3.60
2023-03-03T12:57:36.318Z,2.00
2023-03-03T13:00:04.534Z,1.33
2023-03-03T13:02:40.631Z,2.13
2023-03-03T13:05:16.085Z,4.83
2023-03-03T13:08:01.719Z,1.80
2023-03-03T13:10:33.997Z,1.10
2023-03-03T13:13:23.624Z,0.87
2023-03-03T13:16:06.877Z,2.77
2023-03-03T13:18:52.192Z,2.83
2023-03-03T13:21:26.679Z,1.23
2023-03-03T13:24:09.759Z,1.50
2023-03-03T13:26:38.309Z,3.70
2023-03-03T13:29:11.300Z,1.93
2023-03-03T13:31:42.015Z,2.10
2023-03-03T13:34:23.915Z,0.80
2023-03-03T13:36:53.714Z,4.37
2023-03-03T13:39:25.203Z,1.80
2023-03-03T13:42:20.942Z,3.23
2023-03-03T13:44:49.231Z,2.23
2023-03-03T13:47:15.663Z,1.53
2023-03-03T13:49:54.962Z,2.73
2023-03-03T13:52:27.211Z,5.43
2023-03-03T13:55:05.571Z,1.53
2023-03-03T13:57:44.241Z,1.00
2023-03-03T14:00:38.575Z,1.50
2023-03-03T14:03:24.205Z,1.13
2023-03-03T14:05:51.697Z,3.70
2023-03-03T14:08:36.615Z,3.93
2023-03-03T14:11:23.526Z,5.00
2023-03-03T14:13:50.806Z,2.67
2023-03-03T14:16:20.399Z,4.30
2023-03-03T14:18:55.867Z,3.43
2023-03-03T14:21:25.397Z,1.07
2023-03-03T14:23:57.289Z,2.33
2023-03-03T14:26:23.762Z,2.97
2023-03-03T14:28:52.421Z,3.13
2023-03-03T14:31:19.829Z,3.30
2023-03-03T14:33:56.466Z,2.47
2023-03-03T14:36:30.405Z,3.50
2023-03-03T14:38:56.891Z,3.27
2023-03-03T14:41:35.406Z,1.93
2023-03-03T14:44:21.344Z,6.00
2023-03-03T14:47:00.400Z,3.83
2023-03-03T14:49:33.928Z,2.33
2023-03-03T14:52:16.548Z,2.10
2023-03-03T14:54:46.094Z,2.37
2023-03-03T14:57:15.748Z,2.53
2023-03-03T15:00:06.948Z,5.57
2023-03-03T15:02:42.334Z,6.33
2023-03-03T15:05:27.700Z,1.87
2023-03-03T15:07:55.472Z,1.27
2023-03-03T15:10:29.269Z,1.60
2023-03-03T15:12:55.637Z,3.53
2023-03-03T15:15:24.214Z,1.53
2023-03-03T15:17:50.620Z,0.60
2023-03-03T15:20:16.972Z,0.73
2023-03-03T15:22:53.514Z,0.87
2023-03-03T15:25:42.505Z,1.57
2023-03-03T15:28:22.629Z,2.20
2023-03-03T15:30:53.303Z,4.60
2023-03-03T15:33:40.206Z,3.73
2023-03-03T15:36:17.620Z,1.73
2023-03-03T15:38:49.283Z,6.70
2023-03-03T15:41:27.728Z,3.33
2023-03-03T15:44:10.215Z,2.07
2023-03-03T15:46:39.594Z,4.40
2023-03-03T15:49:22.532Z,2.63
2023-03-03T15:52:05.595Z,3.83
2023-03-03T15:54:38.802Z,3.70
2023-03-03T15:57:13.234Z,2.20
2023-03-03T16:00:12.117Z,3.33
2023-03-03T16:02:38.464Z,4.20
2023-03-03T16:05:28.153Z,2.87
2023-03-03T16:08:14.188Z,3.20
2023-03-03T16:10:46.826Z,4.80
2023-03-03T16:13:28.512Z,3.47
2023-03-03T16:16:04.123Z,2.00
2023-03-03T16:18:42.729Z,1.03
2023-03-03T16:21:15.228Z,3.50
2023-03-03T16:23:44.852Z,5.73
2023-03-03T16:26:27.193Z,4.27
2023-03-03T16:29:03.718Z,2.23
2023-03-03T16:31:49.911Z,4.83
2023-03-03T16:34:26.541Z,6.30
2023-03-03T16:37:11.451Z,5.13
2023-03-03T16:39:37.735Z,4.50
2023-03-03T16:42:10.654Z,4.67
2023-03-03T16:44:36.925Z,3.63
2023-03-03T16:47:32.726Z,7.83
2023-03-03T16:50:01.881Z,4.00
2023-03-03T16:52:43.259Z,3.93
2023-03-03T16:55:14.884Z,3.60
2023-03-03T16:57:59.440Z,5.73
2023-03-03T17:00:44.673Z,4.00
2023-03-03T17:03:11.135Z,8.93
2023-03-03T17:05:47.738Z,13.23
2023-03-03T17:08:32.896Z,10.33
2023-03-03T17:11:11.539Z,9.03
2023-03-03T17:13:43.678Z,4.73
2023-03-03T17:16:26.983Z,9.77
2023-03-03T17:19:09.156Z,6.33
2023-03-03T17:21:54.818Z,8.47
2023-03-03T17:24:48.438Z,10.87
2023-03-03T17:27:33.831Z,9.30
2023-03-03T17:30:03.410Z,8.77
2023-03-03T17:33:08.537Z,8.37
2023-03-03T17:35:37.539Z,6.73
2023-03-03T17:38:11.456Z,11.17
2023-03-03T17:40:45.784Z,14.43
2023-03-03T17:43:12.086Z,9.50
2023-03-03T17:45:40.813Z,10.23
2023-03-03T17:48:26.930Z,12.37
2023-03-03T17:51:08.614Z,6.63
2023-03-03T17:53:53.780Z,9.57
2023-03-03T17:56:26.573Z,9.97
2023-03-03T17:59:11.876Z,10.07
2023-03-03T18:01:56.804Z,8.77
2023-03-03T18:04:27.889Z,8.37
2023-03-03T18:07:03.442Z,6.63
2023-03-03T18:09:48.705Z,8.13
2023-03-03T18:12:34.046Z,10.03
2023-03-03T18:15:12.637Z,12.43
2023-03-03T18:18:05.289Z,8.50
2023-03-03T18:20:37.705Z,6.00
2023-03-03T18:23:28.821Z,7.07
2023-03-03T18:26:00.042Z,10.00
2023-03-03T18:28:36.817Z,8.73
2023-03-03T18:31:05.156Z,9.43
2023-03-03T18:33:42.661Z,9.83
2023-03-03T18:36:13.774Z,14.43
2023-03-03T18:38:41.678Z,16.47
2023-03-03T18:41:12.424Z,19.53
2023-03-03T18:43:44.592Z,13.47
2023-03-03T18:46:10.957Z,6.27
2023-03-03T18:49:00.461Z,10.37
2023-03-03T18:51:39.161Z,8.60
2023-03-03T18:54:18.538Z,7.03
2023-03-03T18:56:44.915Z,10.17
2023-03-03T18:59:34.236Z,13.60
2023-03-03T19:02:13.068Z,12.30
2023-03-03T19:04:42.027Z,13.93
2023-03-03T19:07:16.546Z,12.23
2023-03-03T19:09:45.119Z,10.17
2023-03-03T19:12:13.692Z,12.97
2023-03-03T19:14:40.976Z,10.77
2023-03-03T19:17:16.512Z,9.70
2023-03-03T19:20:05.443Z,4.40
2023-03-03T19:22:39.794Z,12.13
2023-03-03T19:25:08.880Z,8.67
2023-03-03T19:27:35.217Z,5.80
2023-03-03T19:30:22.896Z,8.73
2023-03-03T19:32:52.215Z,8.07
2023-03-03T19:35:25.763Z,13.60
2023-03-03T19:37:58.937Z,17.43
2023-03-03T19:40:25.242Z,8.13
2023-03-03T19:43:11.593Z,12.73
2023-03-03T19:45:38.157Z,6.37
2023-03-03T19:48:06.706Z,9.93
2023-03-03T19:50:43.652Z,12.50
2023-03-03T19:53:16.978Z,10.97
2023-03-03T19:55:49.034Z,12.60
2023-03-03T19:58:34.168Z,19.63
2023-03-03T20:01:18.918Z,12.40
2023-03-03T20:03:48.959Z,10.37
2023-03-03T20:06:24.445Z,12.73
2023-03-03T20:08:58.807Z,8.27
2023-03-03T20:11:35.823Z,8.40
2023-03-03T20:14:09.753Z,13.20
2023-03-03T20:16:41.419Z,14.17
2023-03-03T20:19:07.774Z,11.97
2023-03-03T20:21:43.281Z,12.23
2023-03-03T20:24:28.448Z,10.23
2023-03-03T20:27:02.803Z,5.50
2023-03-03T20:29:47.660Z,16.20
2023-03-03T20:32:17.091Z,6.23
2023-03-03T20:34:53.561Z,12.83
2023-03-03T20:37:29.582Z,11.60
2023-03-03T20:40:01.889Z,10.97
2023-03-03T20:42:34.614Z,11.87
2023-03-03T20:45:23.680Z,14.57
2023-03-03T20:48:05.351Z,6.53
2023-03-03T20:50:36.580Z,16.60
2023-03-03T20:53:02.940Z,4.90
2023-03-03T20:55:34.607Z,9.53
2023-03-03T20:58:06.090Z,8.50
2023-03-03T21:00:43.364Z,9.93
2023-03-03T21:03:28.991Z,10.17
2023-03-03T21:05:56.936Z,13.80
2023-03-03T21:08:39.955Z,15.27
2023-03-03T21:11:08.018Z,14.77
2023-03-03T21:13:37.205Z,6.40
2023-03-03T21:16:10.437Z,18.30
2023-03-03T21:18:36.902Z,13.13
2023-03-03T21:21:03.708Z,15.07
2023-03-03T21:23:30.099Z,18.83
2023-03-03T21:25:57.585Z,9.13
2023-03-03T21:28:29.975Z,11.50
2023-03-03T21:31:01.098Z,7.07
2023-03-03T21:33:45.505Z,9.17
2023-03-03T21:36:13.117Z,13.23
2023-03-03T21:38:39.960Z,8.57
2023-03-03T21:41:06.911Z,12.10
2023-03-03T21:43:40.603Z,7.80
2023-03-03T21:46:07.175Z,11.87
2023-03-03T21:48:33.559Z,12.00
2023-03-03T21:50:59.936Z,6.63
2023-03-03T21:53:27.195Z,16.50
2023-03-03T21:55:53.845Z,11.60
2023-03-03T21:58:20.199Z,13.97
2023-03-03T22:00:46.626Z,14.13
2023-03-03T22:03:15.250Z,11.90
2023-03-03T22:05:42.042Z,11.10
2023-03-03T22:08:08.375Z,11.30
2023-03-03T22:10:34.699Z,5.37
2023-03-03T22:13:01.575Z,10.53
2023-03-03T22:15:30.397Z,11.50
2023-03-03T22:17:56.941Z,10.57
2023-03-03T22:20:23.265Z,13.77
2023-03-03T22:22:49.825Z,10.23
2023-03-03T22:25:16.508Z,8.23
2023-03-03T22:27:42.825Z,7.20
2023-03-03T22:30:09.493Z,14.77
2023-03-03T22:32:35.961Z,11.13
2023-03-03T22:35:02.582Z,15.10
2023-03-03T22:37:28.868Z,9.00
2023-03-03T22:39:55.285Z,9.03
2023-03-03T22:42:23.405Z,9.70
2023-03-03T22:44:49.921Z,8.90
2023-03-03T22:47:16.328Z,6.93
2023-03-03T22:49:42.656Z,10.93
2023-03-03T22:52:08.983Z,13.13
2023-03-03T22:54:35.425Z,11.37
2023-03-03T22:57:01.763Z,11.57
2023-03-03T22:59:28.321Z,9.13
2023-03-03T23:01:54.663Z,15.93
2023-03-03T23:04:21.039Z,7.07
2023-03-03T23:06:47.591Z,14.87
2023-03-03T23:09:13.881Z,7.67
2023-03-03T23:11:40.350Z,7.73
2023-03-03T23:14:06.744Z,8.23
2023-03-03T23:16:33.058Z,9.00
2023-03-03T23:18:59.442Z,10.87
2023-03-03T23:21:25.766Z,19.97
2023-03-03T23:23:53.276Z,15.13
2023-03-03T23:26:19.578Z,12.40
2023-03-03T23:28:45.972Z,9.57
2023-03-03T23:31:12.355Z,11.43
2023-03-03T23:33:45.941Z,10.90
2023-03-03T23:36:12.550Z,16.40
2023-03-03T23:38:39.086Z,15.10
2023-03-03T23:41:06.093Z,10.50
2023-03-03T23:43:33.560Z,8.03
2023-03-03T23:45:59.937Z,12.00
2023-03-03T23:48:27.166Z,10.50
2023-03-03T23:50:53.454Z,10.47
2023-03-03T23:53:19.965Z,15.80
2023-03-03T23:55:46.437Z,8.10
2023-03-03T23:58:12.892Z,11.20
